sensor_id;sensor_type;location;lat;lon;timestamp;P1;durP1;ratioP1;P2;durP2;ratioP2
80237;SDS011;69544;42.138;24.742;2023-05-17T00:00:56;6.13;;;5.20;;
80237;SDS011;69544;42.138;24.742;2023-05-17T00:03:22;6.63;;;5.38;;
80237;SDS011;69544;42.138;24.742;2023-05-17T00:05:47;6.15;;;5.28;;
80237;SDS011;69544;42.138;24.742;2023-05-17T00:08:13;6.80;;;5.35;;
80237;SDS011;69544;42.138;24.742;2023-05-17T00:10:39;6.53;;;5.28;;
80237;SDS011;69544;42.138;24.742;2023-05-17T00:13:04;6.68;;;5.28;;
80237;SDS011;69544;42.138;24.742;2023-05-17T00:15:30;6.82;;;5.20;;
80237;SDS011;69544;42.138;24.742;2023-05-17T00:17:56;6.28;;;5.03;;
80237;SDS011;69544;42.138;24.742;2023-05-17T00:20:21;6.47;;;5.07;;
80237;SDS011;69544;42.138;24.742;2023-05-17T00:22:47;7.10;;;5.32;;
80237;SDS011;69544;42.138;24.742;2023-05-17T00:25:13;7.13;;;5.30;;
80237;SDS011;69544;42.138;24.742;2023-05-17T00:27:38;6.50;;;5.10;;
80237;SDS011;69544;42.138;24.742;2023-05-17T00:30:04;6.72;;;5.32;;
80237;SDS011;69544;42.138;24.742;2023-05-17T00:32:31;7.50;;;5.43;;
80237;SDS011;69544;42.138;24.742;2023-05-17T00:34:57;7.90;;;5.32;;
80237;SDS011;69544;42.138;24.742;2023-05-17T00:37:22;7.22;;;5.10;;
80237;SDS011;69544;42.138;24.742;2023-05-17T00:39:48;6.28;;;5.40;;
80237;SDS011;69544;42.138;24.742;2023-05-17T00:42:14;6.40;;;5.10;;
80237;SDS011;69544;42.138;24.742;2023-05-17T00:44:39;7.35;;;5.60;;
80237;SDS011;69544;42.138;24.742;2023-05-17T00:47:05;7.00;;;5.28;;
80237;SDS011;69544;42.138;24.742;2023-05-17T00:49:31;6.93;;;5.18;;
80237;SDS011;69544;42.138;24.742;2023-05-17T00:51:57;7.30;;;5.22;;
80237;SDS011;69544;42.138;24.742;2023-05-17T00:54:24;6.07;;;5.10;;
80237;SDS011;69544;42.138;24.742;2023-05-17T00:56:51;6.43;;;5.13;;
80237;SDS011;69544;42.138;24.742;2023-05-17T00:59:17;6.70;;;5.10;;
80237;SDS011;69544;42.138;24.742;2023-05-17T01:01:45;6.70;;;5.07;;
80237;SDS011;69544;42.138;24.742;2023-05-17T01:04:11;6.43;;;5.05;;
80237;SDS011;69544;42.138;24.742;2023-05-17T01:06:37;6.55;;;5.15;;
80237;SDS011;69544;42.138;24.742;2023-05-17T01:09:03;6.90;;;5.03;;
80237;SDS011;69544;42.138;24.742;2023-05-17T01:14:04;6.93;;;5.28;;
80237;SDS011;69544;42.138;24.742;2023-05-17T01:17:00;7.07;;;5.20;;
80237;SDS011;69544;42.138;24.742;2023-05-17T01:22:30;7.25;;;5.35;;
80237;SDS011;69544;42.138;24.742;2023-05-17T01:28:08;6.85;;;5.22;;
80237;SDS011;69544;42.138;24.742;2023-05-17T01:30:35;6.78;;;4.93;;
80237;SDS011;69544;42.138;24.742;2023-05-17T01:33:02;6.78;;;5.00;;
80237;SDS011;69544;42.138;24.742;2023-05-17T01:35:28;6.95;;;4.68;;
80237;SDS011;69544;42.138;24.742;2023-05-17T01:37:54;6.38;;;5.13;;
80237;SDS011;69544;42.138;24.742;2023-05-17T01:40:20;5.70;;;4.63;;
80237;SDS011;69544;42.138;24.742;2023-05-17T01:42:52;6.45;;;4.70;;
80237;SDS011;69544;42.138;24.742;2023-05-17T01:45:22;5.93;;;4.78;;
80237;SDS011;69544;42.138;24.742;2023-05-17T01:47:54;6.63;;;4.97;;
80237;SDS011;69544;42.138;24.742;2023-05-17T01:50:46;5.85;;;4.72;;
80237;SDS011;69544;42.138;24.742;2023-05-17T01:53:50;6.22;;;4.53;;
80237;SDS011;69544;42.138;24.742;2023-05-17T01:56:09;6.95;;;5.10;;
80237;SDS011;69544;42.138;24.742;2023-05-17T01:58:46;6.22;;;4.95;;
80237;SDS011;69544;42.138;24.742;2023-05-17T02:01:16;6.22;;;5.13;;
80237;SDS011;69544;42.138;24.742;2023-05-17T02:03:46;7.05;;;4.90;;
80237;SDS011;69544;42.138;24.742;2023-05-17T02:06:13;6.18;;;4.85;;
80237;SDS011;69544;42.138;24.742;2023-05-17T02:08:39;7.05;;;4.90;;
80237;SDS011;69544;42.138;24.742;2023-05-17T02:11:05;6.30;;;4.85;;
80237;SDS011;69544;42.138;24.742;2023-05-17T02:13:31;5.80;;;4.55;;
80237;SDS011;69544;42.138;24.742;2023-05-17T02:16:00;5.97;;;4.65;;
80237;SDS011;69544;42.138;24.742;2023-05-17T02:18:26;6.20;;;4.72;;
80237;SDS011;69544;42.138;24.742;2023-05-17T02:20:52;7.07;;;5.20;;
80237;SDS011;69544;42.138;24.742;2023-05-17T02:23:18;6.47;;;4.80;;
80237;SDS011;69544;42.138;24.742;2023-05-17T02:25:44;5.95;;;4.80;;
80237;SDS011;69544;42.138;24.742;2023-05-17T02:28:10;5.93;;;4.65;;
80237;SDS011;69544;42.138;24.742;2023-05-17T02:30:36;6.60;;;4.93;;
80237;SDS011;69544;42.138;24.742;2023-05-17T02:33:05;6.82;;;5.10;;
80237;SDS011;69544;42.138;24.742;2023-05-17T02:35:31;5.45;;;4.32;;
80237;SDS011;69544;42.138;24.742;2023-05-17T02:37:57;5.75;;;4.68;;
80237;SDS011;69544;42.138;24.742;2023-05-17T02:40:23;6.68;;;4.80;;
80237;SDS011;69544;42.138;24.742;2023-05-17T02:42:49;5.95;;;4.82;;
80237;SDS011;69544;42.138;24.742;2023-05-17T02:45:15;6.25;;;4.65;;
80237;SDS011;69544;42.138;24.742;2023-05-17T02:47:41;5.72;;;4.60;;
80237;SDS011;69544;42.138;24.742;2023-05-17T02:50:07;6.70;;;4.60;;
80237;SDS011;69544;42.138;24.742;2023-05-17T02:52:33;5.60;;;4.43;;
80237;SDS011;69544;42.138;24.742;2023-05-17T02:54:59;5.95;;;4.70;;
80237;SDS011;69544;42.138;24.742;2023-05-17T02:57:25;5.65;;;4.63;;
80237;SDS011;69544;42.138;24.742;2023-05-17T02:59:50;6.30;;;4.90;;
80237;SDS011;69544;42.138;24.742;2023-05-17T03:02:16;6.60;;;4.57;;
80237;SDS011;69544;42.138;24.742;2023-05-17T03:04:42;5.32;;;4.40;;
80237;SDS011;69544;42.138;24.742;2023-05-17T03:07:07;5.93;;;4.72;;
80237;SDS011;69544;42.138;24.742;2023-05-17T03:09:34;6.30;;;4.88;;
80237;SDS011;69544;42.138;24.742;2023-05-17T03:11:59;6.22;;;4.47;;
80237;SDS011;69544;42.138;24.742;2023-05-17T03:14:25;5.32;;;4.20;;
80237;SDS011;69544;42.138;24.742;2023-05-17T03:16:51;7.05;;;4.72;;
80237;SDS011;69544;42.138;24.742;2023-05-17T03:19:17;6.63;;;4.75;;
80237;SDS011;69544;42.138;24.742;2023-05-17T03:21:42;5.38;;;4.47;;
80237;SDS011;69544;42.138;24.742;2023-05-17T03:24:08;5.75;;;4.70;;
80237;SDS011;69544;42.138;24.742;2023-05-17T03:26:34;5.20;;;4.20;;
80237;SDS011;69544;42.138;24.742;2023-05-17T03:28:59;6.43;;;4.43;;
80237;SDS011;69544;42.138;24.742;2023-05-17T03:31:25;5.75;;;4.53;;
80237;SDS011;69544;42.138;24.742;2023-05-17T03:33:51;5.30;;;4.50;;
80237;SDS011;69544;42.138;24.742;2023-05-17T03:36:19;5.45;;;4.18;;
80237;SDS011;69544;42.138;24.742;2023-05-17T03:38:45;6.15;;;4.20;;
80237;SDS011;69544;42.138;24.742;2023-05-17T03:41:10;6.10;;;4.80;;
80237;SDS011;69544;42.138;24.742;2023-05-17T03:43:36;5.43;;;4.25;;
80237;SDS011;69544;42.138;24.742;2023-05-17T03:46:02;6.05;;;4.40;;
80237;SDS011;69544;42.138;24.742;2023-05-17T03:48:27;6.20;;;4.40;;
80237;SDS011;69544;42.138;24.742;2023-05-17T03:50:53;6.85;;;4.53;;
80237;SDS011;69544;42.138;24.742;2023-05-17T03:53:19;5.90;;;4.32;;
80237;SDS011;69544;42.138;24.742;2023-05-17T03:55:45;6.03;;;4.80;;
80237;SDS011;69544;42.138;24.742;2023-05-17T03:58:11;6.20;;;4.85;;
80237;SDS011;69544;42.138;24.742;2023-05-17T04:00:37;6.10;;;4.40;;
80237;SDS011;69544;42.138;24.742;2023-05-17T04:03:02;6.35;;;4.40;;
80237;SDS011;69544;42.138;24.742;2023-05-17T04:05:28;5.30;;;4.30;;
80237;SDS011;69544;42.138;24.742;2023-05-17T04:07:54;6.78;;;4.57;;
80237;SDS011;69544;42.138;24.742;2023-05-17T04:10:20;5.30;;;4.25;;
80237;SDS011;69544;42.138;24.742;2023-05-17T04:12:46;6.85;;;4.57;;
80237;SDS011;69544;42.138;24.742;2023-05-17T04:15:12;5.40;;;4.30;;
80237;SDS011;69544;42.138;24.742;2023-05-17T04:17:37;5.38;;;4.10;;
80237;SDS011;69544;42.138;24.742;2023-05-17T04:20:03;5.68;;;4.43;;
80237;SDS011;69544;42.138;24.742;2023-05-17T04:22:30;8.02;;;4.78;;
80237;SDS011;69544;42.138;24.742;2023-05-17T04:24:56;12.88;;;6.45;;
80237;SDS011;69544;42.138;24.742;2023-05-17T04:27:22;20.23;;;6.70;;
80237;SDS011;69544;42.138;24.742;2023-05-17T04:29:48;25.98;;;6.80;;
80237;SDS011;69544;42.138;24.742;2023-05-17T04:32:14;27.00;;;6.95;;
80237;SDS011;69544;42.138;24.742;2023-05-17T04:34:40;26.60;;;6.97;;
80237;SDS011;69544;42.138;24.742;2023-05-17T04:37:07;24.33;;;6.45;;
80237;SDS011;69544;42.138;24.742;2023-05-17T04:39:32;21.33;;;7.22;;
80237;SDS011;69544;42.138;24.742;2023-05-17T04:41:58;23.85;;;6.65;;
80237;SDS011;69544;42.138;24.742;2023-05-17T04:44:24;20.00;;;6.65;;
80237;SDS011;69544;42.138;24.742;2023-05-17T04:46:52;21.52;;;6.93;;
80237;SDS011;69544;42.138;24.742;2023-05-17T04:49:18;22.70;;;7.80;;
80237;SDS011;69544;42.138;24.742;2023-05-17T04:51:44;26.90;;;7.53;;
80237;SDS011;69544;42.138;24.742;2023-05-17T04:54:10;21.88;;;7.47;;
80237;SDS011;69544;42.138;24.742;2023-05-17T04:56:36;21.10;;;6.80;;
80237;SDS011;69544;42.138;24.742;2023-05-17T04:59:02;25.00;;;7.47;;
80237;SDS011;69544;42.138;24.742;2023-05-17T05:01:28;26.70;;;7.53;;
80237;SDS011;69544;42.138;24.742;2023-05-17T05:03:55;22.10;;;7.47;;
80237;SDS011;69544;42.138;24.742;2023-05-17T05:06:21;37.88;;;7.78;;
80237;SDS011;69544;42.138;24.742;2023-05-17T05:08:47;23.85;;;7.35;;
80237;SDS011;69544;42.138;24.742;2023-05-17T05:11:13;17.77;;;7.78;;
80237;SDS011;69544;42.138;24.742;2023-05-17T05:13:38;23.10;;;7.75;;
80237;SDS011;69544;42.138;24.742;2023-05-17T05:16:05;22.50;;;7.93;;
80237;SDS011;69544;42.138;24.742;2023-05-17T05:18:32;25.15;;;8.43;;
80237;SDS011;69544;42.138;24.742;2023-05-17T05:20:57;30.65;;;9.13;;
80237;SDS011;69544;42.138;24.742;2023-05-17T05:23:24;26.25;;;9.20;;
80237;SDS011;69544;42.138;24.742;2023-05-17T05:25:49;19.58;;;9.45;;
80237;SDS011;69544;42.138;24.742;2023-05-17T05:28:15;25.20;;;9.82;;
80237;SDS011;69544;42.138;24.742;2023-05-17T05:30:41;19.85;;;8.80;;
80237;SDS011;69544;42.138;24.742;2023-05-17T05:33:07;18.48;;;7.32;;
80237;SDS011;69544;42.138;24.742;2023-05-17T05:35:32;17.48;;;7.10;;
80237;SDS011;69544;42.138;24.742;2023-05-17T05:37:58;17.60;;;7.07;;
80237;SDS011;69544;42.138;24.742;2023-05-17T05:40:24;16.63;;;7.15;;
80237;SDS011;69544;42.138;24.742;2023-05-17T05:42:50;15.55;;;7.07;;
80237;SDS011;69544;42.138;24.742;2023-05-17T05:45:16;14.55;;;6.97;;
80237;SDS011;69544;42.138;24.742;2023-05-17T05:47:42;21.30;;;6.90;;
80237;SDS011;69544;42.138;24.742;2023-05-17T05:50:08;23.85;;;6.75;;
80237;SDS011;69544;42.138;24.742;2023-05-17T05:52:34;15.90;;;6.70;;
80237;SDS011;69544;42.138;24.742;2023-05-17T05:54:59;14.13;;;6.35;;
80237;SDS011;69544;42.138;24.742;2023-05-17T05:57:25;16.23;;;6.53;;
80237;SDS011;69544;42.138;24.742;2023-05-17T05:59:51;13.20;;;6.13;;
80237;SDS011;69544;42.138;24.742;2023-05-17T06:02:16;16.58;;;6.32;;
80237;SDS011;69544;42.138;24.742;2023-05-17T06:04:43;13.15;;;6.47;;
80237;SDS011;69544;42.138;24.742;2023-05-17T06:07:11;13.85;;;6.88;;
80237;SDS011;69544;42.138;24.742;2023-05-17T06:09:37;14.90;;;6.30;;
80237;SDS011;69544;42.138;24.742;2023-05-17T06:12:02;11.93;;;5.70;;
80237;SDS011;69544;42.138;24.742;2023-05-17T06:14:28;14.60;;;5.95;;
80237;SDS011;69544;42.138;24.742;2023-05-17T06:16:54;13.20;;;6.20;;
80237;SDS011;69544;42.138;24.742;2023-05-17T06:19:20;15.95;;;6.20;;
80237;SDS011;69544;42.138;24.742;2023-05-17T06:21:45;12.52;;;6.05;;
80237;SDS011;69544;42.138;24.742;2023-05-17T06:24:11;11.10;;;6.57;;
80237;SDS011;69544;42.138;24.742;2023-05-17T06:26:37;13.80;;;5.90;;
80237;SDS011;69544;42.138;24.742;2023-05-17T06:29:02;16.58;;;6.32;;
80237;SDS011;69544;42.138;24.742;2023-05-17T06:31:28;14.10;;;5.97;;
80237;SDS011;69544;42.138;24.742;2023-05-17T06:33:54;13.38;;;6.25;;
80237;SDS011;69544;42.138;24.742;2023-05-17T06:36:19;13.57;;;6.07;;
80237;SDS011;69544;42.138;24.742;2023-05-17T06:38:48;17.95;;;6.47;;
80237;SDS011;69544;42.138;24.742;2023-05-17T06:41:13;11.27;;;5.70;;
80237;SDS011;69544;42.138;24.742;2023-05-17T06:43:39;10.57;;;6.25;;
80237;SDS011;69544;42.138;24.742;2023-05-17T06:46:05;15.27;;;6.03;;
80237;SDS011;69544;42.138;24.742;2023-05-17T06:48:30;13.05;;;5.63;;
80237;SDS011;69544;42.138;24.742;2023-05-17T06:50:56;10.70;;;5.75;;
80237;SDS011;69544;42.138;24.742;2023-05-17T06:53:21;11.63;;;5.80;;
80237;SDS011;69544;42.138;24.742;2023-05-17T06:55:47;8.73;;;5.30;;
80237;SDS011;69544;42.138;24.742;2023-05-17T06:58:13;11.02;;;5.50;;
80237;SDS011;69544;42.138;24.742;2023-05-17T07:00:39;15.27;;;6.07;;
80237;SDS011;69544;42.138;24.742;2023-05-17T07:03:04;13.38;;;5.75;;
80237;SDS011;69544;42.138;24.742;2023-05-17T07:05:33;10.90;;;5.70;;
80237;SDS011;69544;42.138;24.742;2023-05-17T07:07:58;13.05;;;5.40;;
80237;SDS011;69544;42.138;24.742;2023-05-17T07:10:24;9.43;;;5.68;;
80237;SDS011;69544;42.138;24.742;2023-05-17T07:12:51;11.05;;;5.60;;
80237;SDS011;69544;42.138;24.742;2023-05-17T07:15:16;10.00;;;5.57;;
80237;SDS011;69544;42.138;24.742;2023-05-17T07:17:42;12.15;;;5.68;;
80237;SDS011;69544;42.138;24.742;2023-05-17T07:20:08;11.32;;;5.53;;
80237;SDS011;69544;42.138;24.742;2023-05-17T07:22:35;13.48;;;5.63;;
80237;SDS011;69544;42.138;24.742;2023-05-17T07:25:01;12.40;;;5.90;;
80237;SDS011;69544;42.138;24.742;2023-05-17T07:27:27;9.20;;;5.38;;
80237;SDS011;69544;42.138;24.742;2023-05-17T07:29:53;7.95;;;5.38;;
80237;SDS011;69544;42.138;24.742;2023-05-17T07:32:19;10.40;;;5.53;;
80237;SDS011;69544;42.138;24.742;2023-05-17T07:34:44;9.05;;;5.00;;
80237;SDS011;69544;42.138;24.742;2023-05-17T07:37:10;8.13;;;5.28;;
80237;SDS011;69544;42.138;24.742;2023-05-17T07:39:36;10.98;;;5.45;;
80237;SDS011;69544;42.138;24.742;2023-05-17T07:42:01;11.23;;;5.63;;
80237;SDS011;69544;42.138;24.742;2023-05-17T07:44:27;10.63;;;5.50;;
80237;SDS011;69544;42.138;24.742;2023-05-17T07:46:53;8.35;;;5.10;;
80237;SDS011;69544;42.138;24.742;2023-05-17T07:49:19;11.15;;;5.40;;
80237;SDS011;69544;42.138;24.742;2023-05-17T07:51:44;10.48;;;5.47;;
80237;SDS011;69544;42.138;24.742;2023-05-17T07:54:12;8.80;;;5.45;;
80237;SDS011;69544;42.138;24.742;2023-05-17T07:56:48;13.23;;;5.22;;
80237;SDS011;69544;42.138;24.742;2023-05-17T07:59:14;10.27;;;5.25;;
80237;SDS011;69544;42.138;24.742;2023-05-17T08:01:40;10.13;;;5.22;;
80237;SDS011;69544;42.138;24.742;2023-05-17T08:04:06;10.57;;;5.15;;
80237;SDS011;69544;42.138;24.742;2023-05-17T08:06:31;11.30;;;6.32;;
80237;SDS011;69544;42.138;24.742;2023-05-17T08:08:57;10.68;;;5.60;;
80237;SDS011;69544;42.138;24.742;2023-05-17T08:11:22;15.27;;;6.18;;
80237;SDS011;69544;42.138;24.742;2023-05-17T08:13:49;12.05;;;5.75;;
80237;SDS011;69544;42.138;24.742;2023-05-17T08:16:15;11.15;;;5.60;;
80237;SDS011;69544;42.138;24.742;2023-05-17T08:18:41;13.40;;;6.13;;
80237;SDS011;69544;42.138;24.742;2023-05-17T08:21:07;10.95;;;5.65;;
80237;SDS011;69544;42.138;24.742;2023-05-17T08:23:32;7.85;;;5.15;;
80237;SDS011;69544;42.138;24.742;2023-05-17T08:25:58;11.82;;;5.30;;
80237;SDS011;69544;42.138;24.742;2023-05-17T08:28:24;11.30;;;5.75;;
80237;SDS011;69544;42.138;24.742;2023-05-17T08:30:49;9.60;;;5.07;;
80237;SDS011;69544;42.138;24.742;2023-05-17T08:33:15;10.50;;;5.22;;
80237;SDS011;69544;42.138;24.742;2023-05-17T08:35:41;8.57;;;5.13;;
80237;SDS011;69544;42.138;24.742;2023-05-17T08:38:06;8.32;;;4.88;;
80237;SDS011;69544;42.138;24.742;2023-05-17T08:40:32;12.23;;;5.15;;
80237;SDS011;69544;42.138;24.742;2023-05-17T08:42:58;9.30;;;5.18;;
80237;SDS011;69544;42.138;24.742;2023-05-17T08:45:25;9.38;;;5.05;;
80237;SDS011;69544;42.138;24.742;2023-05-17T08:47:51;8.82;;;5.00;;
80237;SDS011;69544;42.138;24.742;2023-05-17T08:50:18;15.10;;;5.55;;
80237;SDS011;69544;42.138;24.742;2023-05-17T08:52:44;9.18;;;5.00;;
80237;SDS011;69544;42.138;24.742;2023-05-17T08:55:10;8.15;;;5.20;;
80237;SDS011;69544;42.138;24.742;2023-05-17T08:57:36;10.13;;;5.03;;
80237;SDS011;69544;42.138;24.742;2023-05-17T09:00:03;9.55;;;5.18;;
80237;SDS011;69544;42.138;24.742;2023-05-17T09:02:36;7.30;;;4.63;;
80237;SDS011;69544;42.138;24.742;2023-05-17T09:05:02;10.48;;;5.15;;
80237;SDS011;69544;42.138;24.742;2023-05-17T09:07:30;9.85;;;4.72;;
80237;SDS011;69544;42.138;24.742;2023-05-17T09:09:56;11.07;;;4.90;;
80237;SDS011;69544;42.138;24.742;2023-05-17T09:12:22;11.18;;;5.43;;
80237;SDS011;69544;42.138;24.742;2023-05-17T09:14:48;8.65;;;4.90;;
80237;SDS011;69544;42.138;24.742;2023-05-17T09:17:17;8.68;;;4.93;;
80237;SDS011;69544;42.138;24.742;2023-05-17T09:19:44;8.40;;;4.72;;
80237;SDS011;69544;42.138;24.742;2023-05-17T09:22:13;9.82;;;4.97;;
80237;SDS011;69544;42.138;24.742;2023-05-17T09:24:40;9.90;;;4.82;;
80237;SDS011;69544;42.138;24.742;2023-05-17T09:27:06;9.88;;;4.60;;
80237;SDS011;69544;42.138;24.742;2023-05-17T09:29:32;24.10;;;11.38;;
80237;SDS011;69544;42.138;24.742;2023-05-17T09:32:12;10.07;;;5.22;;
80237;SDS011;69544;42.138;24.742;2023-05-17T09:34:39;12.98;;;6.07;;
80237;SDS011;69544;42.138;24.742;2023-05-17T09:37:13;10.38;;;5.63;;
80237;SDS011;69544;42.138;24.742;2023-05-17T09:39:40;9.50;;;5.55;;
80237;SDS011;69544;42.138;24.742;2023-05-17T09:42:06;10.63;;;5.43;;
80237;SDS011;69544;42.138;24.742;2023-05-17T09:44:54;12.23;;;5.60;;
80237;SDS011;69544;42.138;24.742;2023-05-17T09:47:27;14.05;;;5.63;;
80237;SDS011;69544;42.138;24.742;2023-05-17T09:49:57;10.43;;;5.32;;
80237;SDS011;69544;42.138;24.742;2023-05-17T09:52:34;11.70;;;5.50;;
80237;SDS011;69544;42.138;24.742;2023-05-17T09:55:00;11.18;;;5.35;;
80237;SDS011;69544;42.138;24.742;2023-05-17T09:57:27;10.30;;;5.05;;
80237;SDS011;69544;42.138;24.742;2023-05-17T10:00:00;9.50;;;5.20;;
80237;SDS011;69544;42.138;24.742;2023-05-17T10:02:27;8.20;;;5.13;;
80237;SDS011;69544;42.138;24.742;2023-05-17T10:04:56;10.23;;;5.30;;
80237;SDS011;69544;42.138;24.742;2023-05-17T10:07:23;10.50;;;5.50;;
80237;SDS011;69544;42.138;24.742;2023-05-17T10:09:50;11.60;;;5.50;;
80237;SDS011;69544;42.138;24.742;2023-05-17T10:12:18;9.82;;;5.13;;
80237;SDS011;69544;42.138;24.742;2023-05-17T10:14:46;9.93;;;5.00;;
80237;SDS011;69544;42.138;24.742;2023-05-17T10:17:13;13.38;;;5.60;;
80237;SDS011;69544;42.138;24.742;2023-05-17T10:19:39;9.05;;;4.80;;
80237;SDS011;69544;42.138;24.742;2023-05-17T10:22:06;9.88;;;5.28;;
80237;SDS011;69544;42.138;24.742;2023-05-17T10:24:33;9.60;;;5.00;;
80237;SDS011;69544;42.138;24.742;2023-05-17T10:27:02;14.30;;;5.35;;
80237;SDS011;69544;42.138;24.742;2023-05-17T10:29:30;8.57;;;5.18;;
80237;SDS011;69544;42.138;24.742;2023-05-17T10:31:57;7.30;;;4.60;;
80237;SDS011;69544;42.138;24.742;2023-05-17T10:34:26;7.70;;;4.97;;
80237;SDS011;69544;42.138;24.742;2023-05-17T10:36:53;8.98;;;4.80;;
80237;SDS011;69544;42.138;24.742;2023-05-17T10:39:19;9.18;;;5.20;;
80237;SDS011;69544;42.138;24.742;2023-05-17T10:41:47;10.02;;;5.03;;
80237;SDS011;69544;42.138;24.742;2023-05-17T10:44:16;9.35;;;4.78;;
80237;SDS011;69544;42.138;24.742;2023-05-17T10:46:55;8.07;;;4.97;;
80237;SDS011;69544;42.138;24.742;2023-05-17T10:49:25;8.73;;;5.07;;
80237;SDS011;69544;42.138;24.742;2023-05-17T10:51:57;8.38;;;4.85;;
80237;SDS011;69544;42.138;24.742;2023-05-17T10:54:37;7.88;;;4.65;;
80237;SDS011;69544;42.138;24.742;2023-05-17T10:57:05;8.75;;;5.05;;
80237;SDS011;69544;42.138;24.742;2023-05-17T10:59:34;8.20;;;4.60;;
80237;SDS011;69544;42.138;24.742;2023-05-17T11:02:04;7.72;;;4.70;;
80237;SDS011;69544;42.138;24.742;2023-05-17T11:04:31;8.50;;;4.70;;
80237;SDS011;69544;42.138;24.742;2023-05-17T11:10:19;9.48;;;5.20;;
80237;SDS011;69544;42.138;24.742;2023-05-17T11:17:35;7.10;;;4.72;;
80237;SDS011;69544;42.138;24.742;2023-05-17T11:25:15;7.32;;;4.75;;
80237;SDS011;69544;42.138;24.742;2023-05-17T11:32:48;10.30;;;5.00;;
80237;SDS011;69544;42.138;24.742;2023-05-17T11:35:21;8.50;;;4.90;;
80237;SDS011;69544;42.138;24.742;2023-05-17T11:37:50;7.00;;;4.55;;
80237;SDS011;69544;42.138;24.742;2023-05-17T11:40:26;7.05;;;4.78;;
80237;SDS011;69544;42.138;24.742;2023-05-17T11:45:47;7.63;;;4.78;;
80237;SDS011;69544;42.138;24.742;2023-05-17T11:48:15;7.97;;;4.72;;
80237;SDS011;69544;42.138;24.742;2023-05-17T11:50:43;8.60;;;4.95;;
80237;SDS011;69544;42.138;24.742;2023-05-17T11:53:10;9.02;;;5.00;;
80237;SDS011;69544;42.138;24.742;2023-05-17T11:55:37;9.05;;;4.90;;
80237;SDS011;69544;42.138;24.742;2023-05-17T11:58:05;9.07;;;4.65;;
80237;SDS011;69544;42.138;24.742;2023-05-17T12:00:38;7.97;;;4.82;;
80237;SDS011;69544;42.138;24.742;2023-05-17T12:03:18;7.43;;;4.60;;
80237;SDS011;69544;42.138;24.742;2023-05-17T12:06:12;7.55;;;4.88;;
80237;SDS011;69544;42.138;24.742;2023-05-17T12:08:41;7.53;;;4.72;;
80237;SDS011;69544;42.138;24.742;2023-05-17T12:11:10;7.90;;;4.65;;
80237;SDS011;69544;42.138;24.742;2023-05-17T12:16:11;7.57;;;4.60;;
80237;SDS011;69544;42.138;24.742;2023-05-17T12:21:08;5.70;;;4.35;;
80237;SDS011;69544;42.138;24.742;2023-05-17T12:23:37;7.15;;;4.40;;
80237;SDS011;69544;42.138;24.742;2023-05-17T12:26:06;8.52;;;4.57;;
80237;SDS011;69544;42.138;24.742;2023-05-17T12:28:32;7.13;;;4.28;;
80237;SDS011;69544;42.138;24.742;2023-05-17T12:30:58;8.68;;;4.45;;
80237;SDS011;69544;42.138;24.742;2023-05-17T12:33:31;8.88;;;4.53;;
80237;SDS011;69544;42.138;24.742;2023-05-17T12:36:00;7.45;;;4.43;;
80237;SDS011;69544;42.138;24.742;2023-05-17T12:38:29;7.97;;;4.68;;
80237;SDS011;69544;42.138;24.742;2023-05-17T12:41:00;6.07;;;4.40;;
80237;SDS011;69544;42.138;24.742;2023-05-17T12:43:33;8.73;;;4.40;;
80237;SDS011;69544;42.138;24.742;2023-05-17T12:46:01;6.05;;;4.43;;
80237;SDS011;69544;42.138;24.742;2023-05-17T12:48:34;8.00;;;4.55;;
80237;SDS011;69544;42.138;24.742;2023-05-17T12:51:11;8.18;;;4.90;;
80237;SDS011;69544;42.138;24.742;2023-05-17T12:53:40;8.77;;;4.40;;
80237;SDS011;69544;42.138;24.742;2023-05-17T12:56:14;7.00;;;4.57;;
80237;SDS011;69544;42.138;24.742;2023-05-17T12:58:42;7.78;;;4.57;;
80237;SDS011;69544;42.138;24.742;2023-05-17T13:01:08;6.75;;;4.60;;
80237;SDS011;69544;42.138;24.742;2023-05-17T13:03:38;7.68;;;4.57;;
80237;SDS011;69544;42.138;24.742;2023-05-17T13:06:06;6.85;;;4.63;;
80237;SDS011;69544;42.138;24.742;2023-05-17T13:08:34;6.78;;;4.47;;
80237;SDS011;69544;42.138;24.742;2023-05-17T13:11:10;6.20;;;4.15;;
80237;SDS011;69544;42.138;24.742;2023-05-17T13:13:37;6.82;;;4.32;;
80237;SDS011;69544;42.138;24.742;2023-05-17T13:16:04;6.85;;;4.60;;
80237;SDS011;69544;42.138;24.742;2023-05-17T13:18:36;7.90;;;4.53;;
80237;SDS011;69544;42.138;24.742;2023-05-17T13:21:15;7.63;;;4.38;;
80237;SDS011;69544;42.138;24.742;2023-05-17T13:23:45;6.40;;;4.25;;
80237;SDS011;69544;42.138;24.742;2023-05-17T13:26:12;7.10;;;4.27;;
80237;SDS011;69544;42.138;24.742;2023-05-17T13:28:38;6.15;;;3.95;;
80237;SDS011;69544;42.138;24.742;2023-05-17T13:31:04;7.32;;;4.53;;
80237;SDS011;69544;42.138;24.742;2023-05-17T13:33:30;7.03;;;4.43;;
80237;SDS011;69544;42.138;24.742;2023-05-17T13:35:56;7.22;;;4.43;;
80237;SDS011;69544;42.138;24.742;2023-05-17T13:38:21;8.18;;;4.28;;
80237;SDS011;69544;42.138;24.742;2023-05-17T13:40:47;7.13;;;4.32;;
80237;SDS011;69544;42.138;24.742;2023-05-17T13:43:13;7.18;;;4.50;;
80237;SDS011;69544;42.138;24.742;2023-05-17T13:45:39;7.95;;;4.18;;
80237;SDS011;69544;42.138;24.742;2023-05-17T13:48:05;6.28;;;4.45;;
80237;SDS011;69544;42.138;24.742;2023-05-17T13:50:31;12.02;;;4.30;;
80237;SDS011;69544;42.138;24.742;2023-05-17T13:52:56;6.15;;;4.18;;
80237;SDS011;69544;42.138;24.742;2023-05-17T13:55:22;6.43;;;3.88;;
80237;SDS011;69544;42.138;24.742;2023-05-17T13:57:48;7.00;;;4.30;;
80237;SDS011;69544;42.138;24.742;2023-05-17T14:00:14;7.03;;;4.30;;
80237;SDS011;69544;42.138;24.742;2023-05-17T14:02:40;6.53;;;4.32;;
80237;SDS011;69544;42.138;24.742;2023-05-17T14:05:06;7.53;;;4.20;;
80237;SDS011;69544;42.138;24.742;2023-05-17T14:07:33;8.73;;;4.28;;
80237;SDS011;69544;42.138;24.742;2023-05-17T14:09:59;7.07;;;4.20;;
80237;SDS011;69544;42.138;24.742;2023-05-17T14:12:26;8.23;;;4.25;;
80237;SDS011;69544;42.138;24.742;2023-05-17T14:14:52;11.70;;;4.30;;
80237;SDS011;69544;42.138;24.742;2023-05-17T14:17:18;7.43;;;4.20;;
80237;SDS011;69544;42.138;24.742;2023-05-17T14:19:43;9.43;;;4.50;;
80237;SDS011;69544;42.138;24.742;2023-05-17T14:22:09;5.95;;;4.00;;
80237;SDS011;69544;42.138;24.742;2023-05-17T14:24:35;6.10;;;3.90;;
80237;SDS011;69544;42.138;24.742;2023-05-17T14:27:00;7.13;;;4.25;;
80237;SDS011;69544;42.138;24.742;2023-05-17T14:29:26;6.07;;;3.88;;
80237;SDS011;69544;42.138;24.742;2023-05-17T14:31:54;7.20;;;4.28;;
80237;SDS011;69544;42.138;24.742;2023-05-17T14:34:19;9.02;;;4.38;;
80237;SDS011;69544;42.138;24.742;2023-05-17T14:36:45;5.70;;;4.15;;
80237;SDS011;69544;42.138;24.742;2023-05-17T14:39:11;6.05;;;4.00;;
80237;SDS011;69544;42.138;24.742;2023-05-17T14:41:37;6.50;;;4.00;;
80237;SDS011;69544;42.138;24.742;2023-05-17T14:44:03;5.63;;;3.88;;
80237;SDS011;69544;42.138;24.742;2023-05-17T14:46:29;6.30;;;4.00;;
80237;SDS011;69544;42.138;24.742;2023-05-17T14:48:55;5.45;;;3.92;;
80237;SDS011;69544;42.138;24.742;2023-05-17T14:51:20;6.28;;;3.95;;
80237;SDS011;69544;42.138;24.742;2023-05-17T14:53:46;7.72;;;4.32;;
80237;SDS011;69544;42.138;24.742;2023-05-17T14:56:12;6.57;;;4.28;;
80237;SDS011;69544;42.138;24.742;2023-05-17T14:58:39;7.00;;;3.97;;
80237;SDS011;69544;42.138;24.742;2023-05-17T15:01:06;5.07;;;3.92;;
80237;SDS011;69544;42.138;24.742;2023-05-17T15:03:32;6.05;;;4.03;;
80237;SDS011;69544;42.138;24.742;2023-05-17T15:05:58;5.68;;;4.07;;